Inicio METAR Ruta Wind Satelite

Informe Meteorológico

Fecha: 2020/07/02 01:24:10 Local
2020.07.02 06:24 UTC


Estado: VENCIDO
Operación:VFR
Pasto / Antonio Narin, Colombia (SKPS) 01-25N 077-16W
2020.07.01 1900 UTC
Wind: from the N (360 degrees) at 8 MPH (7 KT):0
Visibility: greater than 7 mile(s):0
Sky conditions: partly cloudy
Temperature: 71 F (22 C)
Dew Point: 60 F (16 C)
Relative Humidity: 68%
Pressure (altimeter): 30.08 in. Hg (1018 hPa)
ob: SKPS 011900Z 36007KT 9999 SCT025 22/16 A3008
cycle: 19

SKPS 011800Z 34007KT 9999 SCT025 23/16 A3011
SKPS 011700Z 33007KT 9999 SCT025 22/16 A3013
SKPS 011600Z 35005KT 9999 SCT025 21/15 A3016
SKPS 011500Z 34005KT 9999 FEW025 SCT080 19/15 A3017
SKPS 011400Z 00000KT 9999 FEW025 BKN080 18/14 A3018